Time;durP1;ratioP1;P1;durP2;ratioP2;P2;SDS_P1;SDS_P2;PMS_P1;PMS_P2;Temp;Humidity;BMP_temperature;BMP_pressure;BME280_temperature;BME280_humidity;BME280_pressure;Samples;Min_cycle;Max_cycle;Signal;HPM_P1;HPM_P2
2021/07/13 00:00:03;;;;;;;1.87;1.60;;;21.00;30.10;;;;;;5033347;28;20460;-69
2021/07/13 00:02:29;;;;;;;1.90;1.17;;;21.00;30.10;;;;;;5031684;28;20434;-69
2021/07/13 00:04:54;;;;;;;1.93;1.10;;;20.90;30.00;;;;;;5033542;28;20882;-69
2021/07/13 00:07:20;;;;;;;1.80;1.30;;;20.80;31.10;;;;;;5034262;28;20184;-69
2021/07/13 00:09:47;;;;;;;1.40;1.10;;;20.80;30.80;;;;;;5032530;28;20234;-70
2021/07/13 00:12:13;;;;;;;1.50;1.30;;;20.80;31.20;;;;;;5033105;28;20207;-69
2021/07/13 00:14:38;;;;;;;1.53;1.33;;;20.80;31.60;;;;;;5032999;28;20440;-69
2021/07/13 00:17:07;;;;;;;2.53;1.67;;;20.80;32.10;;;;;;5033283;28;20184;-69
2021/07/13 00:19:35;;;;;;;1.87;1.47;;;20.80;32.20;;;;;;5031511;28;20194;-70
2021/07/13 00:22:00;;;;;;;2.27;1.90;;;20.70;32.60;;;;;;5033022;28;20812;-69
2021/07/13 00:24:26;;;;;;;2.03;1.83;;;20.70;32.40;;;;;;5033209;28;20414;-69
2021/07/13 00:26:52;;;;;;;2.47;1.77;;;20.70;31.90;;;;;;5031315;28;20183;-69
2021/07/13 00:29:17;;;;;;;1.97;1.80;;;20.60;32.40;;;;;;5031182;28;20206;-69
2021/07/13 00:31:43;;;;;;;1.67;1.40;;;20.60;32.70;;;;;;5032684;28;20198;-69
2021/07/13 00:34:08;;;;;;;3.83;1.60;;;20.60;32.00;;;;;;5032743;28;20648;-69
2021/07/13 00:36:34;;;;;;;2.80;1.50;;;20.60;32.30;;;;;;5033304;28;20186;-69
2021/07/13 00:39:00;;;;;;;2.87;1.90;;;20.60;32.10;;;;;;5032321;28;20266;-68
2021/07/13 00:41:25;;;;;;;2.47;1.73;;;20.50;32.60;;;;;;5033524;28;20207;-71
2021/07/13 00:43:51;;;;;;;1.90;1.40;;;20.40;32.90;;;;;;5033135;28;20663;-71
2021/07/13 00:46:16;;;;;;;1.47;1.30;;;20.40;33.30;;;;;;5031767;28;20175;-71
2021/07/13 00:48:43;;;;;;;1.20;0.97;;;20.40;33.30;;;;;;5033480;28;20272;-69
2021/07/13 00:51:10;;;;;;;2.43;1.30;;;20.40;32.90;;;;;;5033048;28;20213;-69
2021/07/13 00:53:38;;;;;;;2.80;1.60;;;20.40;32.90;;;;;;5033367;28;20472;-69
2021/07/13 00:56:04;;;;;;;2.47;1.23;;;20.40;32.90;;;;;;5032203;28;20422;-69
2021/07/13 00:58:29;;;;;;;1.90;1.70;;;20.30;32.60;;;;;;5033941;28;20569;-69
2021/07/13 01:00:55;;;;;;;1.57;1.07;;;20.30;32.30;;;;;;5032499;28;21035;-69
2021/07/13 01:03:20;;;;;;;1.77;1.37;;;20.20;32.80;;;;;;5032475;28;20179;-69
2021/07/13 01:05:48;;;;;;;1.93;1.27;;;20.20;32.80;;;;;;5034120;28;20216;-69
2021/07/13 01:08:29;;;;;;;3.33;1.63;;;20.10;32.70;;;;;;5038030;28;20205;-69
2021/07/13 01:11:07;;;;;;;1.40;1.10;;;20.10;32.90;;;;;;5036513;28;20759;-70
2021/07/13 01:13:43;;;;;;;1.93;1.07;;;20.00;32.90;;;;;;5034619;28;20417;-69
2021/07/13 01:16:09;;;;;;;1.37;1.10;;;19.90;33.30;;;;;;5033235;28;20417;-69
2021/07/13 01:18:41;;;;;;;2.23;1.23;;;19.90;33.90;;;;;;5033207;28;20422;-69
2021/07/13 01:21:31;;;;;;;2.57;1.53;;;19.80;33.40;;;;;;5032667;28;20197;-69
2021/07/13 01:24:12;;;;;;;1.33;0.90;;;19.80;34.40;;;;;;5033088;28;20500;-69
2021/07/13 01:26:56;;;;;;;1.20;0.77;;;19.80;34.40;;;;;;5032942;28;20481;-69
2021/07/13 01:29:25;;;;;;;3.00;1.60;;;19.90;34.50;;;;;;5033091;28;20515;-69
2021/07/13 01:31:53;;;;;;;4.40;1.67;;;19.90;34.10;;;;;;5032135;28;20442;-69
2021/07/13 01:34:22;;;;;;;2.47;1.40;;;19.90;34.50;;;;;;5033094;28;20418;-69
2021/07/13 01:36:55;;;;;;;5.10;1.30;;;20.00;35.30;;;;;;5033265;28;20422;-69
2021/07/13 01:39:22;;;;;;;2.00;1.40;;;20.00;34.60;;;;;;5033005;28;20422;-69
2021/07/13 01:41:50;;;;;;;1.47;1.10;;;20.10;35.20;;;;;;5033464;28;20441;-70
2021/07/13 01:44:19;;;;;;;1.60;1.30;;;20.10;35.60;;;;;;5032402;28;20437;-69
2021/07/13 01:46:46;;;;;;;2.00;1.40;;;20.20;36.70;;;;;;5033364;28;20852;-69
2021/07/13 01:49:16;;;;;;;2.13;1.63;;;20.10;38.10;;;;;;5033122;28;20998;-69
2021/07/13 01:51:45;;;;;;;2.20;1.20;;;20.10;39.20;;;;;;5036773;28;20543;-69
2021/07/13 01:54:11;;;;;;;2.73;2.07;;;20.00;39.90;;;;;;5037294;28;20930;-69
2021/07/13 01:56:38;;;;;;;2.70;2.00;;;20.00;39.80;;;;;;5035560;28;20414;-69
2021/07/13 01:59:06;;;;;;;4.80;1.80;;;19.90;41.00;;;;;;5036839;28;20926;-69
2021/07/13 02:01:33;;;;;;;3.40;1.53;;;19.80;42.90;;;;;;5036760;28;20438;-69
2021/07/13 02:04:03;;;;;;;1.53;1.13;;;19.70;43.60;;;;;;5036335;28;20420;-69
2021/07/13 02:06:28;;;;;;;3.80;1.50;;;19.60;44.10;;;;;;5034852;28;20982;-69
2021/07/13 02:08:58;;;;;;;3.50;1.77;;;19.50;44.60;;;;;;5035665;28;20549;-69
2021/07/13 02:11:26;;;;;;;8.27;1.73;;;19.40;45.70;;;;;;5037259;28;20195;-70
2021/07/13 02:13:52;;;;;;;2.00;1.40;;;19.30;46.00;;;;;;5041874;28;20445;-69
2021/07/13 02:16:21;;;;;;;4.13;1.47;;;19.20;46.80;;;;;;5036768;28;20420;-69
2021/07/13 02:18:48;;;;;;;2.17;1.70;;;19.20;47.30;;;;;;5036070;28;20414;-69
2021/07/13 02:21:14;;;;;;;8.07;2.20;;;19.10;47.10;;;;;;5036717;28;20438;-69
2021/07/13 02:23:41;;;;;;;6.60;2.03;;;19.10;47.20;;;;;;5035829;28;20460;-69
2021/07/13 02:26:10;;;;;;;4.70;1.70;;;19.00;49.40;;;;;;5036035;28;20417;-69
2021/07/13 02:28:42;;;;;;;2.57;1.83;;;18.90;49.20;;;;;;5034904;28;20461;-69
2021/07/13 02:31:12;;;;;;;2.87;1.40;;;18.90;49.20;;;;;;5036172;28;20653;-69
2021/07/13 02:33:55;;;;;;;2.90;1.43;;;18.90;49.40;;;;;;5036023;28;20437;-69
2021/07/13 02:36:25;;;;;;;3.57;1.63;;;18.90;50.10;;;;;;5036213;28;20425;-69
2021/07/13 02:38:51;;;;;;;2.43;1.23;;;18.90;51.00;;;;;;5035869;28;20408;-69
2021/07/13 02:41:18;;;;;;;4.13;1.93;;;18.90;51.10;;;;;;5036502;28;20426;-69
2021/07/13 02:43:44;;;;;;;3.20;1.83;;;18.90;50.30;;;;;;5035878;28;20410;-69
2021/07/13 02:46:10;;;;;;;3.63;1.67;;;18.80;50.70;;;;;;5035815;28;20429;-69
2021/07/13 02:48:40;;;;;;;4.37;1.73;;;18.90;51.30;;;;;;5035875;28;20470;-69
2021/07/13 02:51:09;;;;;;;3.60;2.13;;;18.80;51.00;;;;;;5035688;28;20463;-69
2021/07/13 02:53:36;;;;;;;2.13;1.20;;;18.80;51.70;;;;;;5035725;28;20759;-69
2021/07/13 02:56:05;;;;;;;2.30;1.80;;;18.70;51.20;;;;;;5035248;28;20960;-69
2021/07/13 02:58:31;;;;;;;2.57;1.70;;;18.70;50.80;;;;;;5035036;28;20414;-69
2021/07/13 03:00:57;;;;;;;2.63;1.30;;;18.70;51.40;;;;;;5034696;28;20961;-69
2021/07/13 03:03:24;;;;;;;2.70;1.60;;;18.60;51.30;;;;;;5033888;28;20441;-69
2021/07/13 03:05:52;;;;;;;2.10;1.37;;;18.60;52.20;;;;;;5035465;28;20414;-69
2021/07/13 03:08:25;;;;;;;2.80;1.47;;;18.60;51.90;;;;;;5035457;28;20466;-69
2021/07/13 03:10:55;;;;;;;1.67;1.10;;;18.60;52.10;;;;;;5035343;28;20434;-69
2021/07/13 03:13:24;;;;;;;1.57;1.23;;;18.70;51.70;;;;;;5035500;28;20445;-70
2021/07/13 03:15:50;;;;;;;4.50;1.90;;;18.70;51.60;;;;;;5034884;28;20934;-69
2021/07/13 03:18:16;;;;;;;3.37;1.83;;;18.70;51.10;;;;;;5035512;28;20426;-69
2021/07/13 03:20:47;;;;;;;5.30;1.97;;;18.70;50.60;;;;;;5035282;28;20464;-69
2021/07/13 03:23:16;;;;;;;2.10;1.40;;;18.60;50.10;;;;;;5034789;28;20414;-70
2021/07/13 03:25:42;;;;;;;4.90;1.47;;;18.60;50.10;;;;;;5034816;28;20410;-70
2021/07/13 03:28:11;;;;;;;1.80;1.20;;;18.50;50.60;;;;;;5035238;28;20859;-70
2021/07/13 03:30:37;;;;;;;1.73;1.30;;;18.50;51.20;;;;;;5034580;28;20778;-70
2021/07/13 03:33:04;;;;;;;1.60;1.00;;;18.40;50.90;;;;;;5035016;28;20749;-69
2021/07/13 03:35:30;;;;;;;1.90;1.20;;;18.40;50.90;;;;;;5035735;28;20759;-70
2021/07/13 03:37:58;;;;;;;1.87;1.20;;;18.50;51.50;;;;;;5034827;28;20461;-70
2021/07/13 03:40:25;;;;;;;4.77;1.23;;;18.50;50.60;;;;;;5034662;28;20545;-70
2021/07/13 03:42:52;;;;;;;3.27;1.90;;;18.50;50.00;;;;;;5033600;28;20478;-70
2021/07/13 03:45:18;;;;;;;2.17;1.60;;;18.40;50.10;;;;;;5034851;28;20425;-70
2021/07/13 03:47:50;;;;;;;1.77;1.03;;;18.40;50.00;;;;;;5034627;28;20924;-69
2021/07/13 03:50:21;;;;;;;3.17;1.40;;;18.40;50.00;;;;;;5034237;28;20432;-70
2021/07/13 03:52:47;;;;;;;2.30;1.60;;;18.40;50.10;;;;;;5034282;28;20469;-70
2021/07/13 03:55:13;;;;;;;3.10;1.50;;;18.40;50.50;;;;;;5035098;28;20899;-70
2021/07/13 03:57:40;;;;;;;1.90;1.40;;;18.40;50.40;;;;;;5036249;28;20445;-69
2021/07/13 04:00:09;;;;;;;1.67;1.00;;;18.50;50.00;;;;;;5034167;28;21004;-69
2021/07/13 04:02:35;;;;;;;2.00;1.30;;;18.50;48.90;;;;;;5032567;28;20442;-70
2021/07/13 04:05:00;;;;;;;1.50;1.10;;;18.40;48.80;;;;;;5034004;28;20468;-69
2021/07/13 04:07:26;;;;;;;2.50;1.23;;;18.40;48.80;;;;;;5034491;28;20561;-70
2021/07/13 04:09:51;;;;;;;2.07;0.90;;;18.40;49.50;;;;;;5034320;28;20294;-69
2021/07/13 04:12:17;;;;;;;2.50;1.10;;;18.40;49.50;;;;;;5033458;28;20676;-70
2021/07/13 04:14:43;;;;;;;1.60;1.07;;;18.50;49.40;;;;;;5036549;28;20243;-70
2021/07/13 04:17:08;;;;;;;1.83;1.23;;;18.50;48.90;;;;;;5037171;28;20183;-70
2021/07/13 04:19:34;;;;;;;1.57;1.10;;;18.60;49.00;;;;;;5034852;28;20182;-70
2021/07/13 04:21:59;;;;;;;5.10;1.63;;;18.60;49.00;;;;;;5034969;28;20496;-69
2021/07/13 04:24:25;;;;;;;1.60;1.00;;;18.60;48.00;;;;;;5034262;28;20171;-70
2021/07/13 04:26:50;;;;;;;1.60;1.00;;;18.50;48.90;;;;;;5034697;28;20183;-69
2021/07/13 04:29:16;;;;;;;4.67;1.37;;;18.50;50.00;;;;;;5034662;28;20211;-69
2021/07/13 04:31:41;;;;;;;4.13;1.13;;;18.60;50.80;;;;;;5034441;28;20230;-70
2021/07/13 04:34:09;;;;;;;2.83;1.30;;;18.70;50.60;;;;;;5034775;28;20209;-70
2021/07/13 04:36:36;;;;;;;1.73;1.20;;;18.70;49.60;;;;;;5034518;28;20241;-70
2021/07/13 04:39:03;;;;;;;2.73;1.47;;;18.70;49.30;;;;;;5036574;28;20446;-72
2021/07/13 04:41:29;;;;;;;2.03;0.90;;;18.80;49.10;;;;;;5034752;28;20588;-71
2021/07/13 04:43:54;;;;;;;1.47;1.07;;;18.80;48.30;;;;;;5031223;28;20501;-71
2021/07/13 04:46:20;;;;;;;1.77;1.30;;;18.80;48.90;;;;;;5029996;28;20692;-71
2021/07/13 04:48:45;;;;;;;1.37;0.80;;;18.80;48.60;;;;;;5030952;28;20206;-70
2021/07/13 04:51:11;;;;;;;1.47;1.00;;;18.90;48.20;;;;;;5030894;28;20239;-70
2021/07/13 04:53:37;;;;;;;1.20;0.63;;;19.00;48.70;;;;;;5030972;28;20300;-71
2021/07/13 04:56:04;;;;;;;1.70;1.13;;;19.00;48.50;;;;;;5030957;28;20179;-71
2021/07/13 04:58:29;;;;;;;2.50;1.20;;;19.00;48.20;;;;;;5030917;28;20242;-70
2021/07/13 05:00:55;;;;;;;2.07;1.20;;;19.10;48.20;;;;;;5030785;28;20445;-70
2021/07/13 05:03:20;;;;;;;2.60;1.53;;;19.20;49.50;;;;;;5030829;28;20179;-70
2021/07/13 05:05:46;;;;;;;1.63;1.00;;;19.20;49.50;;;;;;5030738;28;20249;-71
2021/07/13 05:08:11;;;;;;;1.70;0.97;;;19.20;48.70;;;;;;5030825;28;20199;-71
2021/07/13 05:10:37;;;;;;;1.70;1.10;;;19.10;47.60;;;;;;5033106;28;20189;-72
2021/07/13 05:13:03;;;;;;;1.77;1.17;;;19.10;48.70;;;;;;5032633;28;20255;-72
2021/07/13 05:15:29;;;;;;;3.10;1.27;;;19.10;49.00;;;;;;5032726;28;20205;-71
2021/07/13 05:17:54;;;;;;;1.70;0.87;;;19.00;48.90;;;;;;5030492;28;20452;-72
2021/07/13 05:20:20;;;;;;;1.60;1.20;;;19.00;49.30;;;;;;5029533;28;20171;-72
2021/07/13 05:22:45;;;;;;;3.10;1.40;;;19.00;49.30;;;;;;5029366;28;20250;-71
2021/07/13 05:25:13;;;;;;;1.80;1.13;;;19.00;49.00;;;;;;5034426;28;20203;-71
2021/07/13 05:27:41;;;;;;;2.57;1.80;;;18.90;49.10;;;;;;5037350;28;20164;-71
2021/07/13 05:30:09;;;;;;;2.63;1.97;;;18.90;49.20;;;;;;5037356;28;20428;-70
2021/07/13 05:32:35;;;;;;;1.90;1.10;;;18.90;49.20;;;;;;5036081;28;20529;-72
2021/07/13 05:35:01;;;;;;;2.00;1.30;;;18.90;49.20;;;;;;5030555;28;20509;-70
2021/07/13 05:37:26;;;;;;;2.30;1.60;;;18.90;49.30;;;;;;5030624;28;20410;-71
2021/07/13 05:39:52;;;;;;;2.30;1.20;;;18.90;49.20;;;;;;5035843;28;20273;-71
2021/07/13 05:42:18;;;;;;;3.90;1.50;;;18.90;49.40;;;;;;5036981;28;20238;-70
2021/07/13 05:44:43;;;;;;;3.23;1.20;;;18.90;49.90;;;;;;5037429;28;20167;-70
2021/07/13 05:47:09;;;;;;;2.30;1.60;;;18.90;49.50;;;;;;5035384;28;20206;-71
2021/07/13 05:49:34;;;;;;;2.00;1.30;;;18.90;49.30;;;;;;5035357;28;20252;-70
2021/07/13 05:52:00;;;;;;;8.50;1.53;;;19.00;49.80;;;;;;5041232;28;20224;-72
2021/07/13 05:54:26;;;;;;;1.70;1.50;;;19.00;50.10;;;;;;5041774;28;20659;-71
2021/07/13 05:56:54;;;;;;;1.70;1.30;;;19.00;50.20;;;;;;5044810;28;20179;-72
2021/07/13 05:59:19;;;;;;;3.20;1.93;;;19.00;50.70;;;;;;5042003;28;20175;-70
2021/07/13 06:01:45;;;;;;;3.30;2.40;;;19.00;50.10;;;;;;5042291;28;20434;-72
2021/07/13 06:04:10;;;;;;;6.00;2.33;;;19.10;50.20;;;;;;5041567;28;20175;-72
2021/07/13 06:06:36;;;;;;;3.20;1.50;;;19.10;49.90;;;;;;5040330;28;20225;-72
2021/07/13 06:09:01;;;;;;;4.33;1.77;;;19.10;49.40;;;;;;5042277;28;20206;-71
2021/07/13 06:11:27;;;;;;;6.97;2.43;;;19.10;49.40;;;;;;5042014;28;20246;-72
2021/07/13 06:13:52;;;;;;;2.47;2.10;;;19.10;50.40;;;;;;5041441;28;20186;-72
2021/07/13 06:16:18;;;;;;;3.40;2.40;;;19.30;50.00;;;;;;5038200;28;20186;-72
2021/07/13 06:18:43;;;;;;;4.23;2.67;;;19.40;49.70;;;;;;5042236;28;20214;-71
2021/07/13 06:21:09;;;;;;;2.80;2.40;;;19.50;48.30;;;;;;5044665;28;20199;-72
2021/07/13 06:23:36;;;;;;;4.10;2.20;;;19.50;48.40;;;;;;5039682;28;20190;-71
2021/07/13 06:26:02;;;;;;;4.10;2.33;;;19.50;48.70;;;;;;5040732;28;20659;-72
2021/07/13 06:28:28;;;;;;;2.07;1.87;;;19.60;47.50;;;;;;5039711;28;20525;-72
2021/07/13 06:30:53;;;;;;;2.73;2.07;;;19.60;47.30;;;;;;5038333;28;20507;-72
2021/07/13 06:33:19;;;;;;;2.90;2.17;;;19.60;47.80;;;;;;5040465;28;20174;-71
2021/07/13 06:35:46;;;;;;;2.90;1.60;;;19.60;48.50;;;;;;5039193;28;20186;-72
2021/07/13 06:38:12;;;;;;;1.97;1.63;;;19.50;48.80;;;;;;5035379;28;20194;-71
2021/07/13 06:40:38;;;;;;;2.20;2.00;;;19.50;49.10;;;;;;5036108;28;20422;-71
2021/07/13 06:43:03;;;;;;;4.00;2.10;;;19.30;49.60;;;;;;5038863;28;20179;-70
2021/07/13 06:45:29;;;;;;;2.90;1.80;;;19.20;50.30;;;;;;5038752;28;20182;-71
2021/07/13 06:47:54;;;;;;;2.33;1.97;;;19.10;51.30;;;;;;5038644;28;20197;-72
2021/07/13 06:50:24;;;;;;;3.97;2.20;;;19.00;51.90;;;;;;5039881;28;20199;-72
2021/07/13 06:52:51;;;;;;;6.43;1.90;;;19.00;52.30;;;;;;5040185;28;20230;-72
2021/07/13 06:55:17;;;;;;;3.60;1.80;;;18.90;53.00;;;;;;5041022;28;20999;-71
2021/07/13 06:57:43;;;;;;;4.03;2.13;;;18.90;54.10;;;;;;5040813;28;20457;-71
2021/07/13 07:00:10;;;;;;;3.00;2.00;;;18.90;54.30;;;;;;5038145;28;20177;-72
2021/07/13 07:02:35;;;;;;;3.43;1.47;;;18.90;54.30;;;;;;5039864;28;20237;-71
2021/07/13 07:05:01;;;;;;;5.43;2.13;;;18.90;53.30;;;;;;5039420;28;20513;-72
2021/07/13 07:07:27;;;;;;;2.97;1.77;;;18.80;54.20;;;;;;5039028;28;20194;-71
2021/07/13 07:09:52;;;;;;;2.67;2.33;;;18.80;53.30;;;;;;5038588;28;20294;-72
2021/07/13 07:12:18;;;;;;;2.57;1.57;;;18.80;53.20;;;;;;5040280;28;20601;-70
2021/07/13 07:14:43;;;;;;;2.40;1.73;;;18.80;53.80;;;;;;5039468;28;20596;-72
2021/07/13 07:17:09;;;;;;;4.93;1.60;;;18.80;53.80;;;;;;5038336;28;20645;-72
2021/07/13 07:19:34;;;;;;;2.53;1.67;;;18.70;53.00;;;;;;5038679;28;20194;-72
2021/07/13 07:22:00;;;;;;;1.60;1.33;;;18.70;53.50;;;;;;5039111;28;20199;-72
2021/07/13 07:24:25;;;;;;;1.83;1.30;;;18.70;53.60;;;;;;5038576;28;20273;-70
2021/07/13 07:26:51;;;;;;;2.63;1.63;;;18.60;53.60;;;;;;5037845;28;20183;-72
2021/07/13 07:29:17;;;;;;;3.03;1.50;;;18.60;53.20;;;;;;5030520;28;20270;-72
2021/07/13 07:31:43;;;;;;;1.70;1.20;;;18.60;53.30;;;;;;5018487;28;20196;-72
2021/07/13 07:34:08;;;;;;;2.50;1.50;;;18.60;53.90;;;;;;5019433;28;20242;-70
2021/07/13 07:36:34;;;;;;;3.20;1.47;;;18.70;54.10;;;;;;5025033;28;20434;-71
2021/07/13 07:39:00;;;;;;;2.77;1.70;;;18.80;54.20;;;;;;5036467;28;20333;-72
2021/07/13 07:41:25;;;;;;;5.43;1.67;;;18.80;54.10;;;;;;5038391;28;20656;-72
2021/07/13 07:43:51;;;;;;;7.50;1.40;;;18.90;54.30;;;;;;5038429;28;20178;-71
2021/07/13 07:46:16;;;;;;;3.13;1.43;;;19.00;54.00;;;;;;5037511;28;20671;-71
2021/07/13 07:48:42;;;;;;;1.87;1.43;;;19.00;52.60;;;;;;5039296;28;20242;-75
2021/07/13 07:51:08;;;;;;;1.50;1.10;;;19.10;52.10;;;;;;5034608;28;20211;-72
2021/07/13 07:53:33;;;;;;;3.43;1.40;;;19.10;52.00;;;;;;5036588;28;20172;-72
2021/07/13 07:55:59;;;;;;;1.73;1.20;;;19.10;52.60;;;;;;5036031;28;20176;-72
2021/07/13 07:58:25;;;;;;;1.53;0.93;;;19.10;52.30;;;;;;5036334;28;20195;-68
2021/07/13 08:00:51;;;;;;;2.20;1.47;;;19.20;52.00;;;;;;5036490;28;20198;-72
2021/07/13 08:03:16;;;;;;;1.50;1.10;;;19.20;52.10;;;;;;5038133;28;20422;-71
2021/07/13 08:05:42;;;;;;;4.53;1.00;;;19.30;52.40;;;;;;5035949;28;20457;-71
2021/07/13 08:08:09;;;;;;;2.20;1.10;;;19.30;51.70;;;;;;5031659;28;20203;-70
2021/07/13 08:10:35;;;;;;;2.23;1.33;;;19.40;50.50;;;;;;5031610;28;20430;-70
2021/07/13 08:13:02;;;;;;;1.50;1.10;;;19.50;49.80;;;;;;5031798;28;20562;-72
2021/07/13 08:15:28;;;;;;;2.10;1.20;;;19.50;49.80;;;;;;5032060;28;20525;-71
2021/07/13 08:17:54;;;;;;;1.77;1.27;;;19.50;50.10;;;;;;5031972;28;20504;-70
2021/07/13 08:20:20;;;;;;;2.13;1.50;;;19.40;50.20;;;;;;5031644;28;20179;-70
2021/07/13 08:22:47;;;;;;;1.83;1.03;;;19.40;50.20;;;;;;5031746;28;20598;-70
2021/07/13 08:25:14;;;;;;;3.07;1.33;;;19.40;51.30;;;;;;5031618;28;20422;-71
2021/07/13 08:27:41;;;;;;;1.70;1.50;;;19.50;51.80;;;;;;5031777;28;20406;-70
2021/07/13 08:30:07;;;;;;;2.20;1.37;;;19.70;51.10;;;;;;5027269;28;20476;-70
2021/07/13 08:32:33;;;;;;;2.90;1.43;;;19.70;50.00;;;;;;5030399;28;20492;-76
2021/07/13 08:34:59;;;;;;;1.70;1.10;;;19.70;50.00;;;;;;5031458;28;20437;-70
2021/07/13 08:37:25;;;;;;;2.73;1.30;;;19.70;50.00;;;;;;5028557;28;20253;-69
2021/07/13 08:39:51;;;;;;;3.83;1.27;;;19.60;49.40;;;;;;5030623;28;20171;-69
2021/07/13 08:42:17;;;;;;;5.10;1.37;;;19.50;49.80;;;;;;5031250;28;20438;-69
2021/07/13 08:44:43;;;;;;;1.80;1.30;;;19.40;50.60;;;;;;5031059;28;20274;-69
2021/07/13 08:47:14;;;;;;;2.50;1.43;;;19.30;52.00;;;;;;5031291;28;20180;-70
2021/07/13 08:49:39;;;;;;;2.97;1.37;;;19.40;52.50;;;;;;5030809;28;20453;-69
2021/07/13 08:52:05;;;;;;;1.67;1.13;;;19.50;51.40;;;;;;5031056;28;20512;-70
2021/07/13 08:54:34;;;;;;;1.60;1.10;;;19.30;50.60;;;;;;5027196;28;20274;-70
2021/07/13 08:57:00;;;;;;;1.10;0.50;;;19.10;50.80;;;;;;5025555;28;20645;-71
2021/07/13 08:59:25;;;;;;;2.00;1.00;;;18.80;50.40;;;;;;5025725;28;20429;-71
2021/07/13 09:01:51;;;;;;;1.30;0.70;;;18.60;50.60;;;;;;5026716;28;20221;-70
2021/07/13 09:04:16;;;;;;;1.20;0.70;;;18.40;48.90;;;;;;5027186;28;20810;-71
2021/07/13 09:06:55;;;;;;;1.20;0.60;;;18.30;49.00;;;;;;5026872;28;20213;-71
2021/07/13 09:09:34;;;;;;;1.30;0.63;;;18.10;48.50;;;;;;5024642;28;20684;-71
2021/07/13 09:12:07;;;;;;;1.07;0.47;;;18.00;49.90;;;;;;5026550;28;21045;-71
2021/07/13 09:15:06;;;;;;;1.70;0.60;;;18.00;48.70;;;;;;5023792;28;20426;-71
2021/07/13 09:17:43;;;;;;;1.30;0.50;;;17.80;48.70;;;;;;4994187;28;20434;-71
2021/07/13 09:20:24;;;;;;;1.07;0.40;;;17.70;49.90;;;;;;5027138;28;20449;-71
2021/07/13 09:23:01;;;;;;;1.10;0.50;;;17.50;50.20;;;;;;5026659;28;20449;-71
2021/07/13 09:25:27;;;;;;;1.10;0.50;;;17.30;50.20;;;;;;5026493;28;20430;-71
2021/07/13 09:28:20;;;;;;;1.70;0.53;;;17.20;50.30;;;;;;5027281;28;20429;-71
2021/07/13 09:30:47;;;;;;;1.10;0.50;;;17.20;50.60;;;;;;5021467;28;20430;-71
2021/07/13 09:33:15;;;;;;;1.13;0.57;;;17.20;51.00;;;;;;5029965;28;20425;-72
2021/07/13 09:36:15;;;;;;;1.50;0.80;;;17.20;50.70;;;;;;5028708;28;20429;-68
2021/07/13 09:38:44;;;;;;;1.30;0.70;;;17.20;49.90;;;;;;5029205;28;20413;-69
2021/07/13 09:41:13;;;;;;;1.10;0.53;;;17.10;49.70;;;;;;5029462;28;20434;-69
2021/07/13 09:43:39;;;;;;;1.10;0.50;;;17.00;49.80;;;;;;5029131;28;20445;-69
2021/07/13 09:46:24;;;;;;;1.10;0.50;;;16.90;48.60;;;;;;5032095;28;20422;-68
2021/07/13 09:49:11;;;;;;;1.93;0.63;;;16.90;48.60;;;;;;5029571;28;20573;-69
2021/07/13 09:51:38;;;;;;;1.10;0.50;;;16.90;49.30;;;;;;5030471;28;20976;-68
2021/07/13 09:54:23;;;;;;;1.50;0.90;;;16.80;49.10;;;;;;5030658;28;20418;-68
2021/07/13 09:56:49;;;;;;;1.17;0.50;;;16.90;50.00;;;;;;5030463;28;20434;-68
2021/07/13 09:59:15;;;;;;;1.30;0.63;;;16.80;48.50;;;;;;5030000;28;20424;-69
2021/07/13 10:01:42;;;;;;;1.60;0.70;;;16.60;49.60;;;;;;5030401;28;20442;-68
2021/07/13 10:04:07;;;;;;;1.87;0.50;;;16.70;49.50;;;;;;5029629;28;20648;-68
2021/07/13 10:06:33;;;;;;;1.30;0.70;;;16.70;51.30;;;;;;5029932;28;20421;-69
2021/07/13 10:09:00;;;;;;;1.70;0.70;;;16.90;50.70;;;;;;5029797;28;20767;-69
2021/07/13 10:11:28;;;;;;;1.40;0.70;;;16.80;50.10;;;;;;5031992;28;20836;-69
2021/07/13 10:13:58;;;;;;;1.30;0.50;;;16.80;50.10;;;;;;5031820;28;20429;-69
2021/07/13 10:16:24;;;;;;;1.20;0.70;;;16.70;49.40;;;;;;5033592;28;22132;-69
2021/07/13 10:18:50;;;;;;;1.10;0.50;;;16.80;49.70;;;;;;5033781;28;20426;-69
2021/07/13 10:21:17;;;;;;;1.20;0.57;;;16.80;49.90;;;;;;5034068;28;20460;-69
2021/07/13 10:23:44;;;;;;;1.47;0.70;;;16.80;49.00;;;;;;5033796;28;20771;-69
2021/07/13 10:26:11;;;;;;;3.77;0.50;;;16.80;48.00;;;;;;5033874;28;20461;-69
2021/07/13 10:28:38;;;;;;;1.20;0.60;;;16.80;47.40;;;;;;5032527;28;20463;-68
2021/07/13 10:31:04;;;;;;;1.10;0.50;;;16.80;47.60;;;;;;5033152;28;20963;-68
2021/07/13 10:33:38;;;;;;;1.20;0.70;;;16.80;47.40;;;;;;5033875;28;20413;-68
2021/07/13 10:36:31;;;;;;;1.17;0.60;;;16.70;47.30;;;;;;5033750;28;20816;-68
2021/07/13 10:39:29;;;;;;;1.10;0.40;;;16.70;46.80;;;;;;5033433;28;20418;-69
2021/07/13 10:42:00;;;;;;;1.20;0.50;;;16.70;47.30;;;;;;5033618;28;20432;-69
2021/07/13 10:44:42;;;;;;;1.67;0.90;;;;;;;;;;5033893;28;20472;-69
2021/07/13 10:47:23;;;;;;;1.10;0.40;;;17.20;46.40;;;;;;5033822;28;20401;-69
2021/07/13 10:50:17;;;;;;;1.67;0.60;;;17.30;46.40;;;;;;5032975;28;20453;-69
2021/07/13 10:52:53;;;;;;;1.10;0.40;;;17.60;44.60;;;;;;5034888;28;20465;-69
2021/07/13 10:55:31;;;;;;;1.43;0.63;;;18.00;43.30;;;;;;5033598;28;20413;-70
2021/07/13 10:58:09;;;;;;;1.10;0.40;;;18.50;41.50;;;;;;5032240;28;20448;-70
2021/07/13 11:00:50;;;;;;;2.33;0.70;;;19.00;40.20;;;;;;5032980;28;20432;-69
2021/07/13 11:03:27;;;;;;;1.60;0.90;;;19.30;37.50;;;;;;5033661;28;20406;-70
2021/07/13 11:05:54;;;;;;;1.40;0.60;;;19.20;37.30;;;;;;5032343;28;20418;-70
2021/07/13 11:08:38;;;;;;;1.50;0.70;;;19.40;36.60;;;;;;5033139;28;20489;-69
2021/07/13 11:11:19;;;;;;;1.20;0.60;;;19.70;35.70;;;;;;5032793;28;20448;-69
2021/07/13 11:13:54;;;;;;;1.20;0.50;;;19.80;34.20;;;;;;5033043;28;20412;-70
2021/07/13 11:16:28;;;;;;;1.20;0.50;;;19.70;34.30;;;;;;5033150;28;20406;-70
2021/07/13 11:18:55;;;;;;;2.77;1.03;;;19.70;34.30;;;;;;5031464;28;20429;-70
2021/07/13 11:21:29;;;;;;;2.13;1.10;;;19.50;34.10;;;;;;5033114;28;20430;-69
2021/07/13 11:23:57;;;;;;;1.77;0.77;;;19.40;35.50;;;;;;5032349;28;21252;-70
2021/07/13 11:26:24;;;;;;;1.30;0.60;;;19.30;36.00;;;;;;5013981;28;20430;-69
2021/07/13 11:28:52;;;;;;;1.20;0.60;;;19.30;35.80;;;;;;5012975;28;20990;-69
2021/07/13 11:31:42;;;;;;;1.30;0.63;;;19.30;35.30;;;;;;5032838;28;20434;-70
2021/07/13 11:34:10;;;;;;;6.97;1.13;;;19.20;33.00;;;;;;5032809;28;21070;-70
2021/07/13 11:36:40;;;;;;;1.87;0.67;;;19.20;33.90;;;;;;5031416;28;20572;-69
2021/07/13 11:39:10;;;;;;;1.20;0.50;;;19.20;34.00;;;;;;5032100;28;20791;-70
2021/07/13 11:41:36;;;;;;;1.20;0.60;;;19.20;34.20;;;;;;5032190;28;20531;-71
2021/07/13 11:44:05;;;;;;;1.20;0.50;;;19.30;35.20;;;;;;5033523;28;21038;-75
2021/07/13 11:46:36;;;;;;;1.20;0.60;;;19.50;34.10;;;;;;5032906;28;20472;-70
2021/07/13 11:49:05;;;;;;;1.73;0.80;;;19.60;32.30;;;;;;5032305;28;20453;-74
2021/07/13 11:51:40;;;;;;;1.30;0.77;;;19.80;32.60;;;;;;5032586;28;20490;-71
2021/07/13 11:54:12;;;;;;;1.20;0.70;;;20.00;31.00;;;;;;5032704;28;20410;-70
2021/07/13 11:56:44;;;;;;;1.30;0.70;;;20.10;31.00;;;;;;5032669;28;20406;-73
2021/07/13 11:59:10;;;;;;;1.43;0.80;;;20.20;31.60;;;;;;5032678;28;20433;-73
2021/07/13 12:01:37;;;;;;;1.20;0.60;;;20.20;32.50;;;;;;5031367;28;20433;-74
2021/07/13 12:04:08;;;;;;;1.40;0.70;;;20.30;31.40;;;;;;5032592;28;20702;-73
2021/07/13 12:06:35;;;;;;;1.40;0.80;;;20.20;30.40;;;;;;5033065;28;20426;-73
2021/07/13 12:09:08;;;;;;;1.80;1.00;;;20.30;32.10;;;;;;5031904;28;20454;-71
2021/07/13 12:11:36;;;;;;;1.37;0.80;;;20.50;31.90;;;;;;5031993;28;20480;-71
2021/07/13 12:14:03;;;;;;;1.77;0.73;;;20.70;30.80;;;;;;5020908;28;20493;-71
2021/07/13 12:16:32;;;;;;;1.30;0.83;;;20.90;31.00;;;;;;5023458;28;20426;-71
2021/07/13 12:19:00;;;;;;;1.30;1.00;;;21.30;30.30;;;;;;5011694;28;20411;-71
2021/07/13 12:21:26;;;;;;;3.60;1.63;;;21.30;29.00;;;;;;5027409;28;20848;-71
2021/07/13 12:23:53;;;;;;;1.43;1.07;;;21.00;28.30;;;;;;5012648;28;20500;-71
2021/07/13 12:26:21;;;;;;;1.40;1.10;;;20.70;27.70;;;;;;5012178;28;20499;-70
2021/07/13 12:29:06;;;;;;;2.93;0.93;;;20.50;27.90;;;;;;5011530;28;20470;-71
2021/07/13 12:31:35;;;;;;;1.83;1.10;;;20.40;28.30;;;;;;5011814;28;20451;-70
2021/07/13 12:34:03;;;;;;;1.50;1.20;;;20.40;29.70;;;;;;5011202;28;20403;-71
2021/07/13 12:36:30;;;;;;;1.40;0.97;;;20.50;28.20;;;;;;5011795;28;20407;-71
2021/07/13 12:38:57;;;;;;;1.70;1.20;;;20.50;29.70;;;;;;5026665;28;20422;-71
2021/07/13 12:41:27;;;;;;;1.60;1.20;;;20.70;29.90;;;;;;5011969;28;20434;-72
2021/07/13 12:43:53;;;;;;;1.77;1.40;;;20.70;28.00;;;;;;5012143;28;20502;-70
2021/07/13 12:46:29;;;;;;;1.60;1.20;;;20.70;26.90;;;;;;5027325;28;20509;-70
2021/07/13 12:48:56;;;;;;;1.40;1.20;;;20.60;29.50;;;;;;5011538;28;20451;-71
2021/07/13 12:51:27;;;;;;;1.40;1.30;;;20.60;26.60;;;;;;5011761;28;20589;-71
2021/07/13 12:54:07;;;;;;;1.70;1.40;;;20.60;27.40;;;;;;5026626;28;20411;-70